Time;durP1;ratioP1;P1;durP2;ratioP2;P2;SDS_P1;SDS_P2;PMS_P1;PMS_P2;Temp;Humidity;BMP_temperature;BMP_pressure;BME280_temperature;BME280_humidity;BME280_pressure;Samples;Min_cycle;Max_cycle;Signal;HPM_P1;HPM_P2
2022/08/30 00:01:06;;;;;;;3.42;2.25;;;;;;;;;;5026805;28;20617;-72
2022/08/30 00:03:33;;;;;;;6.45;2.60;;;;;;;;;;5038006;28;20124;-73
2022/08/30 00:06:00;;;;;;;4.63;2.42;;;;;;;;;;5034678;28;20059;-72
2022/08/30 00:08:26;;;;;;;6.93;2.95;;;;;;;;;;5033098;28;20061;-72
2022/08/30 00:10:53;;;;;;;6.93;2.90;;;;;;;;;;5043385;28;20048;-72
2022/08/30 00:13:20;;;;;;;4.75;2.80;;;;;;;;;;5042114;28;20163;-72
2022/08/30 00:15:47;;;;;;;5.25;3.28;;;;;;;;;;5041689;28;20052;-73
2022/08/30 00:18:14;;;;;;;3.92;2.22;;;;;;;;;;5049689;28;20050;-72
2022/08/30 00:20:40;;;;;;;4.03;2.00;;;;;;;;;;5046350;28;20647;-72
2022/08/30 00:23:06;;;;;;;3.80;2.65;;;;;;;;;;5038960;28;20064;-73
2022/08/30 00:25:33;;;;;;;3.63;2.53;;;;;;;;;;5040097;28;20460;-73
2022/08/30 00:27:59;;;;;;;3.95;2.10;;;;;;;;;;5041667;28;20095;-72
2022/08/30 00:30:25;;;;;;;6.38;2.15;;;;;;;;;;5028866;28;20053;-73
2022/08/30 00:32:52;;;;;;;4.15;1.90;;;;;;;;;;5054663;28;20040;-73
2022/08/30 00:35:19;;;;;;;3.10;1.80;;;;;;;;;;5052556;28;20056;-73
2022/08/30 00:37:46;;;;;;;4.20;1.85;;;;;;;;;;5044023;28;20127;-72
2022/08/30 00:40:14;;;;;;;4.97;2.22;;;;;;;;;;5044454;28;20044;-72
2022/08/30 00:42:41;;;;;;;4.38;1.85;;;;;;;;;;5044804;28;20048;-73
2022/08/30 00:45:11;;;;;;;4.20;2.05;;;;;;;;;;5041896;28;20073;-72
2022/08/30 00:47:37;;;;;;;4.68;1.77;;;;;;;;;;5040228;28;20049;-72
2022/08/30 00:50:07;;;;;;;3.95;1.70;;;;;;;;;;5030851;28;20180;-73
2022/08/30 00:52:34;;;;;;;3.38;1.80;;;;;;;;;;5028402;28;20072;-72
2022/08/30 00:55:01;;;;;;;3.33;1.80;;;;;;;;;;5034155;28;20091;-73
2022/08/30 00:57:27;;;;;;;4.18;2.28;;;;;;;;;;5038048;28;21130;-73
2022/08/30 00:59:53;;;;;;;4.93;2.30;;;;;;;;;;5042874;28;20154;-73
2022/08/30 01:02:22;;;;;;;4.53;2.65;;;;;;;;;;5036920;28;20041;-75
2022/08/30 01:04:50;;;;;;;4.75;2.05;;;;;;;;;;5036871;28;20047;-75
2022/08/30 01:07:16;;;;;;;4.15;2.42;;;;;;;;;;5032976;28;20114;-74
2022/08/30 01:09:43;;;;;;;3.53;2.40;;;;;;;;;;5037984;28;20499;-74
2022/08/30 01:12:09;;;;;;;6.35;2.80;;;;;;;;;;5035589;28;20040;-72
2022/08/30 01:14:35;;;;;;;5.93;2.53;;;;;;;;;;5033940;28;20041;-73
2022/08/30 01:17:02;;;;;;;3.92;2.38;;;;;;;;;;5037161;28;20045;-73
2022/08/30 01:19:36;;;;;;;8.52;3.13;;;;;;;;;;5039277;28;20440;-73
2022/08/30 01:22:05;;;;;;;3.72;2.33;;;;;;;;;;5040736;28;20044;-73
2022/08/30 01:24:32;;;;;;;5.57;2.63;;;;;;;;;;5045274;28;20052;-73
2022/08/30 01:26:58;;;;;;;4.53;3.20;;;;;;;;;;5038549;28;20079;-73
2022/08/30 01:29:25;;;;;;;6.30;2.97;;;;;;;;;;5031094;28;20045;-73
2022/08/30 01:31:51;;;;;;;6.30;3.10;;;;;;;;;;5032826;28;20095;-72
2022/08/30 01:34:18;;;;;;;4.13;2.80;;;;;;;;;;5041370;28;20037;-72
2022/08/30 01:36:45;;;;;;;3.55;2.42;;;;;;;;;;5039611;28;20037;-73
2022/08/30 01:39:13;;;;;;;4.57;2.33;;;;;;;;;;5032988;28;20048;-72
2022/08/30 01:41:39;;;;;;;4.15;2.67;;;;;;;;;;5043847;28;20458;-72
2022/08/30 01:44:07;;;;;;;4.30;2.65;;;;;;;;;;5042470;28;20049;-72
2022/08/30 01:46:35;;;;;;;4.45;2.60;;;;;;;;;;5034660;28;20053;-72
2022/08/30 01:49:02;;;;;;;4.85;2.42;;;;;;;;;;5046379;28;20051;-72
2022/08/30 01:51:29;;;;;;;4.10;3.00;;;;;;;;;;5039072;28;20420;-73
2022/08/30 01:53:56;;;;;;;4.40;2.20;;;;;;;;;;5040141;28;20040;-73
2022/08/30 01:56:22;;;;;;;4.10;2.80;;;;;;;;;;5036368;28;20132;-72
2022/08/30 01:58:49;;;;;;;5.63;2.60;;;;;;;;;;5037691;28;20041;-72
2022/08/30 02:01:18;;;;;;;5.32;2.67;;;;;;;;;;5039764;28;20064;-72
2022/08/30 02:03:44;;;;;;;3.40;2.35;;;;;;;;;;5038628;28;20056;-73
2022/08/30 02:06:12;;;;;;;5.57;2.53;;;;;;;;;;5038621;28;20052;-73
2022/08/30 02:08:39;;;;;;;3.75;2.70;;;;;;;;;;5039073;28;20119;-72
2022/08/30 02:11:05;;;;;;;3.65;2.60;;;;;;;;;;5032388;28;20049;-72
2022/08/30 02:13:32;;;;;;;3.72;1.65;;;;;;;;;;5038632;28;20052;-72
2022/08/30 02:15:59;;;;;;;2.88;1.80;;;;;;;;;;5043356;28;20045;-72
2022/08/30 02:18:26;;;;;;;4.13;2.17;;;;;;;;;;5039453;28;20064;-69
2022/08/30 02:20:52;;;;;;;3.78;1.85;;;;;;;;;;5039583;28;20040;-72
2022/08/30 02:23:18;;;;;;;3.72;2.15;;;;;;;;;;5039889;28;21509;-72
2022/08/30 02:25:44;;;;;;;6.15;2.40;;;;;;;;;;5039403;28;20048;-72
2022/08/30 02:28:12;;;;;;;5.13;2.45;;;;;;;;;;5034311;28;20434;-72
2022/08/30 02:30:38;;;;;;;6.40;1.80;;;;;;;;;;5052030;28;20087;-72
2022/08/30 02:33:05;;;;;;;4.15;2.05;;;;;;;;;;5049457;28;20184;-72
2022/08/30 02:35:31;;;;;;;3.30;2.10;;;;;;;;;;5035311;28;20125;-72
2022/08/30 02:37:57;;;;;;;6.22;2.65;;;;;;;;;;5036592;28;20068;-72
2022/08/30 02:40:23;;;;;;;4.25;2.40;;;;;;;;;;5035002;28;20037;-72
2022/08/30 02:42:50;;;;;;;3.00;1.50;;;;;;;;;;5035464;28;20053;-72
2022/08/30 02:45:16;;;;;;;3.47;1.92;;;;;;;;;;5035860;28;20099;-72
2022/08/30 02:47:42;;;;;;;4.25;1.60;;;;;;;;;;5030407;28;20040;-72
2022/08/30 02:50:09;;;;;;;2.97;1.50;;;;;;;;;;5024240;28;20051;-72
2022/08/30 02:52:35;;;;;;;5.78;1.52;;;;;;;;;;5040017;28;20060;-72
2022/08/30 02:55:02;;;;;;;5.50;1.60;;;;;;;;;;5034804;28;20052;-72
2022/08/30 02:57:29;;;;;;;3.53;1.83;;;;;;;;;;5037966;28;20059;-72
2022/08/30 02:59:55;;;;;;;3.78;1.90;;;;;;;;;;5036568;28;20047;-72
2022/08/30 03:02:21;;;;;;;7.93;2.25;;;;;;;;;;5038905;28;20041;-72
2022/08/30 03:04:48;;;;;;;4.57;1.80;;;;;;;;;;5036874;28;20091;-72
2022/08/30 03:07:15;;;;;;;4.72;2.38;;;;;;;;;;5028528;28;20044;-72
2022/08/30 03:09:41;;;;;;;6.57;1.88;;;;;;;;;;5030207;28;20049;-72
2022/08/30 03:12:08;;;;;;;5.97;2.08;;;;;;;;;;5034109;28;20405;-72
2022/08/30 03:14:35;;;;;;;5.53;2.50;;;;;;;;;;5023790;28;20045;-72
2022/08/30 03:17:02;;;;;;;4.25;1.88;;;;;;;;;;5034572;28;20052;-72
2022/08/30 03:19:28;;;;;;;5.28;1.67;;;;;;;;;;5029098;28;20061;-72
2022/08/30 03:21:55;;;;;;;4.25;1.70;;;;;;;;;;5035920;28;20030;-72
2022/08/30 03:24:21;;;;;;;4.78;1.92;;;;;;;;;;5034943;28;20060;-72
2022/08/30 03:26:47;;;;;;;4.20;1.83;;;;;;;;;;5038174;28;20049;-72
2022/08/30 03:29:13;;;;;;;6.20;1.75;;;;;;;;;;5037457;28;20045;-72
2022/08/30 03:31:40;;;;;;;5.70;1.60;;;;;;;;;;5038722;28;20413;-72
2022/08/30 03:34:09;;;;;;;5.88;1.80;;;;;;;;;;5049299;28;20060;-72
2022/08/30 03:36:36;;;;;;;3.90;1.60;;;;;;;;;;5045493;28;20041;-72
2022/08/30 03:39:03;;;;;;;3.45;1.60;;;;;;;;;;5039528;28;20040;-73
2022/08/30 03:41:31;;;;;;;4.35;2.25;;;;;;;;;;5038534;28;20052;-72
2022/08/30 03:43:57;;;;;;;4.35;2.38;;;;;;;;;;5047790;28;20412;-73
2022/08/30 03:46:23;;;;;;;5.00;1.80;;;;;;;;;;5045536;28;20084;-72
2022/08/30 03:48:50;;;;;;;6.25;1.98;;;;;;;;;;5042477;28;20075;-72
2022/08/30 03:51:17;;;;;;;3.00;1.42;;;;;;;;;;5045493;28;20040;-71
2022/08/30 03:53:43;;;;;;;3.92;2.03;;;;;;;;;;5051166;28;20499;-72
2022/08/30 03:56:09;;;;;;;7.72;2.10;;;;;;;;;;5044207;28;20130;-72
2022/08/30 03:58:36;;;;;;;3.40;1.50;;;;;;;;;;5040530;28;20053;-72
2022/08/30 04:01:02;;;;;;;4.65;1.63;;;;;;;;;;5041453;28;20053;-72
2022/08/30 04:03:28;;;;;;;9.98;2.05;;;;;;;;;;5041167;28;20122;-72
2022/08/30 04:05:55;;;;;;;6.32;2.05;;;;;;;;;;5046738;28;20040;-72
2022/08/30 04:08:22;;;;;;;4.72;1.80;;;;;;;;;;5049786;28;20102;-73
2022/08/30 04:10:48;;;;;;;4.57;2.20;;;;;;;;;;5043401;28;20404;-72
2022/08/30 04:13:15;;;;;;;5.68;2.03;;;;;;;;;;5039255;28;20045;-72
2022/08/30 04:15:41;;;;;;;5.97;2.50;;;;;;;;;;5040851;28;20049;-72
2022/08/30 04:18:08;;;;;;;6.72;2.28;;;;;;;;;;5040721;28;20036;-72
2022/08/30 04:20:35;;;;;;;5.93;2.25;;;;;;;;;;5042521;28;20064;-72
2022/08/30 04:23:01;;;;;;;5.07;1.95;;;;;;;;;;5045638;28;20157;-72
2022/08/30 04:25:27;;;;;;;5.10;1.95;;;;;;;;;;5032649;28;20148;-73
2022/08/30 04:27:54;;;;;;;4.20;1.70;;;;;;;;;;5027988;28;21376;-72
2022/08/30 04:30:20;;;;;;;4.00;1.90;;;;;;;;;;5044110;28;20437;-73
2022/08/30 04:32:46;;;;;;;4.85;1.70;;;;;;;;;;5030422;28;20124;-72
2022/08/30 04:35:13;;;;;;;5.60;1.65;;;;;;;;;;5030950;28;20071;-68
2022/08/30 04:37:39;;;;;;;5.55;1.77;;;;;;;;;;5033797;28;20040;-72
2022/08/30 04:40:06;;;;;;;5.13;2.17;;;;;;;;;;5037615;28;20052;-72
2022/08/30 04:42:33;;;;;;;7.05;3.20;;;;;;;;;;5033275;28;20060;-72
2022/08/30 04:45:02;;;;;;;8.52;3.65;;;;;;;;;;5041662;28;20044;-72
2022/08/30 04:47:28;;;;;;;8.38;4.90;;;;;;;;;;5043411;28;21705;-72
2022/08/30 04:49:54;;;;;;;9.32;4.55;;;;;;;;;;5050790;28;20100;-72
2022/08/30 04:52:20;;;;;;;6.90;3.60;;;;;;;;;;5049128;28;20053;-72
2022/08/30 04:54:46;;;;;;;7.18;3.95;;;;;;;;;;5027715;28;20053;-72
2022/08/30 04:57:12;;;;;;;10.98;4.63;;;;;;;;;;5041299;28;20040;-70
2022/08/30 04:59:38;;;;;;;5.25;3.75;;;;;;;;;;5041817;28;20119;-69
2022/08/30 05:02:05;;;;;;;9.30;3.45;;;;;;;;;;5042824;28;20192;-70
2022/08/30 05:04:31;;;;;;;10.82;3.20;;;;;;;;;;5049153;28;20531;-69
2022/08/30 05:06:57;;;;;;;9.60;3.40;;;;;;;;;;5045290;28;20130;-69
2022/08/30 05:09:23;;;;;;;6.05;3.30;;;;;;;;;;5055190;28;20103;-69
2022/08/30 05:11:49;;;;;;;9.40;3.63;;;;;;;;;;5057185;28;20039;-70
2022/08/30 05:14:15;;;;;;;7.38;3.00;;;;;;;;;;5051992;28;20610;-70
2022/08/30 05:16:41;;;;;;;7.57;3.60;;;;;;;;;;5053109;28;20047;-69
2022/08/30 05:19:08;;;;;;;5.20;3.72;;;;;;;;;;5050711;28;20072;-70
2022/08/30 05:21:34;;;;;;;5.60;3.85;;;;;;;;;;5050103;28;20048;-68
2022/08/30 05:24:00;;;;;;;9.45;3.78;;;;;;;;;;5048853;28;20044;-69
2022/08/30 05:26:28;;;;;;;9.07;4.90;;;;;;;;;;5046627;28;20413;-70
2022/08/30 05:28:54;;;;;;;9.75;4.18;;;;;;;;;;5041804;28;20042;-69
2022/08/30 05:31:21;;;;;;;11.60;5.45;;;;;;;;;;5037635;28;20132;-69
2022/08/30 05:33:48;;;;;;;7.78;4.97;;;;;;;;;;5043820;28;20124;-69
2022/08/30 05:36:15;;;;;;;9.23;4.85;;;;;;;;;;5046907;28;20076;-69
2022/08/30 05:38:41;;;;;;;7.80;5.65;;;;;;;;;;5057763;28;20045;-69
2022/08/30 05:41:07;;;;;;;9.57;4.07;;;;;;;;;;5065796;28;20040;-68
2022/08/30 05:43:35;;;;;;;8.98;5.28;;;;;;;;;;5061457;28;20036;-69
2022/08/30 05:46:04;;;;;;;10.27;7.15;;;;;;;;;;5059591;28;20116;-68
2022/08/30 05:48:30;;;;;;;10.55;7.30;;;;;;;;;;5064329;28;20113;-69
2022/08/30 05:51:04;;;;;;;11.90;7.70;;;;;;;;;;5052773;28;20115;-68
2022/08/30 05:53:30;;;;;;;11.02;7.68;;;;;;;;;;5049064;28;20045;-68
2022/08/30 05:55:56;;;;;;;7.75;5.97;;;;;;;;;;5046790;28;20400;-69
2022/08/30 05:58:23;;;;;;;11.60;7.30;;;;;;;;;;5047041;28;20449;-68
2022/08/30 06:00:49;;;;;;;11.88;7.10;;;;;;;;;;5047359;28;20060;-68
2022/08/30 06:03:15;;;;;;;22.95;8.38;;;;;;;;;;5043951;28;20136;-68
2022/08/30 06:05:41;;;;;;;11.13;7.22;;;;;;;;;;5044690;28;20174;-69
2022/08/30 06:08:07;;;;;;;12.48;8.18;;;;;;;;;;5045863;28;20052;-69
2022/08/30 06:10:33;;;;;;;12.32;7.50;;;;;;;;;;5046446;28;20126;-69
2022/08/30 06:12:59;;;;;;;11.55;6.95;;;;;;;;;;5046427;28;20405;-69
2022/08/30 06:15:25;;;;;;;10.90;7.03;;;;;;;;;;5046856;28;20044;-69
2022/08/30 06:17:52;;;;;;;14.50;7.50;;;;;;;;;;5045997;28;20053;-69
2022/08/30 06:20:19;;;;;;;10.52;6.97;;;;;;;;;;5044127;28;20052;-69
2022/08/30 06:22:45;;;;;;;9.55;7.00;;;;;;;;;;5047561;28;20049;-69
2022/08/30 06:25:13;;;;;;;9.15;5.93;;;;;;;;;;5044670;28;20041;-69
2022/08/30 06:27:41;;;;;;;10.02;6.00;;;;;;;;;;5046078;28;20441;-69
2022/08/30 06:30:09;;;;;;;12.52;5.63;;;;;;;;;;5046123;28;20056;-68
2022/08/30 06:32:36;;;;;;;10.65;5.90;;;;;;;;;;5046097;28;20052;-69
2022/08/30 06:35:02;;;;;;;12.98;5.65;;;;;;;;;;5044178;28;20056;-69
2022/08/30 06:37:28;;;;;;;10.10;5.75;;;;;;;;;;5047317;28;20484;-69
2022/08/30 06:39:56;;;;;;;8.88;5.72;;;;;;;;;;5045717;28;20048;-69
2022/08/30 06:42:23;;;;;;;11.93;6.00;;;;;;;;;;5046242;28;20071;-69
2022/08/30 06:44:49;;;;;;;10.07;5.60;;;;;;;;;;5044359;28;20057;-69
2022/08/30 06:47:15;;;;;;;11.15;5.07;;;;;;;;;;5047394;28;20052;-69
2022/08/30 06:49:41;;;;;;;7.28;5.03;;;;;;;;;;5046147;28;20041;-69
2022/08/30 06:52:07;;;;;;;8.05;5.10;;;;;;;;;;5046122;28;20127;-69
2022/08/30 06:54:33;;;;;;;9.07;5.00;;;;;;;;;;5045096;28;20453;-71
2022/08/30 06:57:01;;;;;;;11.50;4.50;;;;;;;;;;5045368;28;20056;-71
2022/08/30 06:59:27;;;;;;;7.55;4.88;;;;;;;;;;5046265;28;20037;-71
2022/08/30 07:01:54;;;;;;;11.30;5.25;;;;;;;;;;5047318;28;20060;-71
2022/08/30 07:04:20;;;;;;;8.63;4.25;;;;;;;;;;5045999;28;20566;-71
2022/08/30 07:06:46;;;;;;;11.23;3.88;;;;;;;;;;5044358;28;20040;-71
2022/08/30 07:09:12;;;;;;;7.60;4.30;;;;;;;;;;5046415;28;20060;-71
2022/08/30 07:11:39;;;;;;;7.13;3.67;;;;;;;;;;5043924;28;20079;-70
2022/08/30 07:14:06;;;;;;;8.57;3.42;;;;;;;;;;5043785;28;20060;-71
2022/08/30 07:16:32;;;;;;;6.75;2.83;;;;;;;;;;5054141;28;20041;-71
2022/08/30 07:18:59;;;;;;;6.28;2.55;;;;;;;;;;5049519;28;20431;-71
2022/08/30 07:21:25;;;;;;;6.65;2.78;;;;;;;;;;5055107;28;20053;-71
2022/08/30 07:23:52;;;;;;;6.63;2.75;;;;;;;;;;5060471;28;20499;-71
2022/08/30 07:26:20;;;;;;;5.93;2.28;;;;;;;;;;5055471;28;20055;-71
2022/08/30 07:28:47;;;;;;;6.22;2.05;;;;;;;;;;5060074;28;20064;-71
2022/08/30 07:31:14;;;;;;;4.00;1.90;;;;;;;;;;5053941;28;20053;-71
2022/08/30 07:33:40;;;;;;;6.93;2.60;;;;;;;;;;5058576;28;20052;-71
2022/08/30 07:36:07;;;;;;;4.65;2.10;;;;;;;;;;5039674;28;20040;-69
2022/08/30 07:38:33;;;;;;;5.07;1.80;;;;;;;;;;5056194;28;20052;-69
2022/08/30 07:41:00;;;;;;;8.32;2.15;;;;;;;;;;5059482;28;20037;-70
2022/08/30 07:43:27;;;;;;;9.55;2.17;;;;;;;;;;5058252;28;20449;-68
2022/08/30 07:45:53;;;;;;;6.97;2.08;;;;;;;;;;5055593;28;20147;-69
2022/08/30 07:48:19;;;;;;;5.35;2.00;;;;;;;;;;5059898;28;20052;-69
2022/08/30 07:50:47;;;;;;;5.60;1.65;;;;;;;;;;5057528;28;20098;-70
2022/08/30 07:53:13;;;;;;;4.97;1.60;;;;;;;;;;5056553;28;20369;-69
2022/08/30 07:55:39;;;;;;;8.57;1.90;;;;;;;;;;5056247;28;20049;-69
2022/08/30 07:58:06;;;;;;;4.28;1.60;;;;;;;;;;5056260;28;20045;-69
2022/08/30 08:00:32;;;;;;;4.95;1.90;;;;;;;;;;5061278;28;20064;-70
2022/08/30 08:03:03;;;;;;;4.25;1.48;;;;;;;;;;5057414;28;20048;-69
2022/08/30 08:05:29;;;;;;;9.25;1.92;;;;;;;;;;5041695;28;20402;-69
2022/08/30 08:07:55;;;;;;;5.10;1.80;;;;;;;;;;5059477;28;20488;-70
2022/08/30 08:10:22;;;;;;;5.30;1.67;;;;;;;;;;5060975;28;20044;-69
2022/08/30 08:12:48;;;;;;;9.18;2.20;;;;;;;;;;5057724;28;20084;-69
2022/08/30 08:15:14;;;;;;;8.70;1.90;;;;;;;;;;5035042;28;20152;-70
2022/08/30 08:17:40;;;;;;;8.05;2.08;;;;;;;;;;5059150;28;20089;-69
2022/08/30 08:20:07;;;;;;;5.95;1.73;;;;;;;;;;5047876;28;20052;-69
2022/08/30 08:22:33;;;;;;;4.55;1.80;;;;;;;;;;5057986;28;20337;-69
2022/08/30 08:24:59;;;;;;;7.68;2.00;;;;;;;;;;5055332;28;20049;-70
2022/08/30 08:27:25;;;;;;;3.85;1.55;;;;;;;;;;5058724;28;20132;-70
2022/08/30 08:29:51;;;;;;;5.18;1.77;;;;;;;;;;5058855;28;20557;-69
2022/08/30 08:32:17;;;;;;;5.35;1.70;;;;;;;;;;5060234;28;20089;-70
2022/08/30 08:34:44;;;;;;;5.20;1.95;;;;;;;;;;5062109;28;20250;-70
2022/08/30 08:37:10;;;;;;;9.73;1.92;;;;;;;;;;5059705;28;20079;-69
2022/08/30 08:39:36;;;;;;;3.75;1.73;;;;;;;;;;5059960;28;20071;-70
2022/08/30 08:42:09;;;;;;;6.18;2.22;;;;;;;;;;5054920;28;20401;-70
2022/08/30 08:44:42;;;;;;;5.65;1.77;;;;;;;;;;5060453;28;20041;-70
2022/08/30 08:47:28;;;;;;;5.25;1.58;;;;;;;;;;5062495;28;20045;-70
2022/08/30 08:49:57;;;;;;;6.03;1.58;;;;;;;;;;5054880;28;20096;-70
2022/08/30 08:55:13;;;;;;;7.35;1.70;;;;;;;;;;5060751;28;20056;-69
2022/08/30 08:57:40;;;;;;;5.97;1.63;;;;;;;;;;5059551;28;20087;-69
2022/08/30 09:00:07;;;;;;;3.58;1.40;;;;;;;;;;5060060;28;20049;-69
2022/08/30 09:02:39;;;;;;;3.97;1.40;;;;;;;;;;5058704;28;20054;-69
2022/08/30 09:05:05;;;;;;;5.50;1.80;;;;;;;;;;5057420;28;20146;-69
2022/08/30 09:07:35;;;;;;;6.70;1.90;;;;;;;;;;5057720;28;20127;-69
2022/08/30 09:10:02;;;;;;;5.57;1.83;;;;;;;;;;5057417;28;20142;-69
2022/08/30 09:12:28;;;;;;;5.07;1.35;;;;;;;;;;5061094;28;20059;-69
2022/08/30 09:14:58;;;;;;;7.07;1.85;;;;;;;;;;5057344;28;20119;-69
2022/08/30 09:17:24;;;;;;;7.22;1.70;;;;;;;;;;5057224;28;20036;-69
2022/08/30 09:19:51;;;;;;;4.78;1.40;;;;;;;;;;5058365;28;20049;-69
2022/08/30 09:22:21;;;;;;;4.13;1.33;;;;;;;;;;5059499;28;20032;-69
2022/08/30 09:24:51;;;;;;;3.85;1.40;;;;;;;;;;5058279;28;20057;-70
2022/08/30 09:27:19;;;;;;;5.18;1.15;;;;;;;;;;5056853;28;20488;-70
2022/08/30 09:29:51;;;;;;;7.35;1.80;;;;;;;;;;5062037;28;20530;-69
2022/08/30 09:32:30;;;;;;;3.17;1.70;;;;;;;;;;5056298;28;20094;-69
2022/08/30 09:34:57;;;;;;;4.75;1.55;;;;;;;;;;5058330;28;20044;-69
2022/08/30 09:37:27;;;;;;;4.57;1.73;;;;;;;;;;5054278;28;20049;-67
2022/08/30 09:39:53;;;;;;;3.92;1.30;;;;;;;;;;5051053;28;20114;-69
2022/08/30 09:42:24;;;;;;;3.80;1.33;;;;;;;;;;5058060;28;20033;-69
2022/08/30 09:44:50;;;;;;;4.05;1.60;;;;;;;;;;5051235;28;20603;-69
2022/08/30 09:47:19;;;;;;;5.20;1.83;;;;;;;;;;5051132;28;20375;-70
2022/08/30 09:49:45;;;;;;;3.60;1.60;;;;;;;;;;5054324;28;20064;-70
2022/08/30 09:52:24;;;;;;;3.28;1.50;;;;;;;;;;5056072;28;20049;-70
2022/08/30 09:55:13;;;;;;;3.88;1.83;;;;;;;;;;5049900;28;21172;-71
2022/08/30 09:57:42;;;;;;;5.28;1.50;;;;;;;;;;5058746;28;20045;-71
2022/08/30 10:00:14;;;;;;;3.63;1.33;;;;;;;;;;5058931;28;20064;-71
2022/08/30 10:02:53;;;;;;;4.05;1.38;;;;;;;;;;5054846;28;20048;-71
2022/08/30 10:05:19;;;;;;;3.35;1.23;;;;;;;;;;5057353;28;20048;-71
2022/08/30 10:07:46;;;;;;;6.30;1.38;;;;;;;;;;5059642;28;20044;-71
2022/08/30 10:10:18;;;;;;;5.95;1.70;;;;;;;;;;5059632;28;20049;-71
2022/08/30 10:12:54;;;;;;;5.35;1.60;;;;;;;;;;5055084;28;20589;-71
2022/08/30 10:15:23;;;;;;;4.50;1.30;;;;;;;;;;5051841;28;20049;-71
2022/08/30 10:17:56;;;;;;;4.40;1.45;;;;;;;;;;5052904;28;20063;-71
2022/08/30 10:20:26;;;;;;;4.63;1.27;;;;;;;;;;5057685;28;20404;-71
2022/08/30 10:22:56;;;;;;;6.13;1.50;;;;;;;;;;5058530;28;20046;-71
2022/08/30 10:25:24;;;;;;;5.82;1.33;;;;;;;;;;5054263;28;20048;-71
2022/08/30 10:27:50;;;;;;;5.80;1.30;;;;;;;;;;5058531;28;20040;-71
2022/08/30 10:30:17;;;;;;;3.97;1.52;;;;;;;;;;5054548;28;20057;-71
2022/08/30 10:32:47;;;;;;;5.55;1.17;;;;;;;;;;5059629;28;20040;-72
2022/08/30 10:35:17;;;;;;;4.78;1.25;;;;;;;;;;5055586;28;20152;-71
2022/08/30 10:37:47;;;;;;;4.63;1.17;;;;;;;;;;5062363;28;20043;-71
2022/08/30 10:43:04;;;;;;;3.67;1.00;;;;;;;;;;5059563;28;20362;-71
2022/08/30 10:45:32;;;;;;;3.85;1.15;;;;;;;;;;5059752;28;20048;-72
2022/08/30 10:48:04;;;;;;;5.90;1.08;;;;;;;;;;5059456;28;20038;-71
2022/08/30 10:50:34;;;;;;;3.00;1.10;;;;;;;;;;5061438;28;20059;-71
2022/08/30 10:53:00;;;;;;;4.68;1.40;;;;;;;;;;5057604;28;20159;-71
2022/08/30 10:55:29;;;;;;;4.05;1.05;;;;;;;;;;5059095;28;20041;-72
2022/08/30 10:57:59;;;;;;;5.95;1.10;;;;;;;;;;5060116;28;20048;-72
2022/08/30 11:00:29;;;;;;;4.10;1.10;;;;;;;;;;5061257;28;20037;-72
2022/08/30 11:03:08;;;;;;;4.35;1.00;;;;;;;;;;5053241;28;20099;-71
2022/08/30 11:05:34;;;;;;;6.85;1.30;;;;;;;;;;5056901;28;20056;-72
2022/08/30 11:08:08;;;;;;;2.58;0.90;;;;;;;;;;5057815;28;20056;-72
2022/08/30 11:10:42;;;;;;;2.80;1.00;;;;;;;;;;5061967;28;20131;-72
2022/08/30 11:13:11;;;;;;;2.85;1.08;;;;;;;;;;5061288;28;20044;-72
2022/08/30 11:15:52;;;;;;;3.70;0.90;;;;;;;;;;5057880;28;20045;-72
2022/08/30 11:18:19;;;;;;;3.30;1.05;;;;;;;;;;5039482;28;20040;-72
2022/08/30 11:20:46;;;;;;;4.55;1.20;;;;;;;;;;5059373;28;20144;-72
2022/08/30 11:23:19;;;;;;;4.13;1.10;;;;;;;;;;5058456;28;20052;-72
2022/08/30 11:25:48;;;;;;;3.45;1.38;;;;;;;;;;5055472;28;20049;-71
2022/08/30 11:28:34;;;;;;;6.07;1.10;;;;;;;;;;5053775;28;20099;-72
2022/08/30 11:31:07;;;;;;;3.42;1.40;;;;;;;;;;5055930;28;20460;-72
2022/08/30 11:33:41;;;;;;;4.55;1.00;;;;;;;;;;5054233;28;20448;-72
2022/08/30 11:36:08;;;;;;;3.55;1.20;;;;;;;;;;5055863;28;20051;-72
2022/08/30 11:38:34;;;;;;;5.25;1.05;;;;;;;;;;5051705;28;20488;-72
2022/08/30 11:41:19;;;;;;;3.47;1.15;;;;;;;;;;5060626;28;20052;-72
2022/08/30 11:43:45;;;;;;;2.58;1.10;;;;;;;;;;5048045;28;20045;-72
2022/08/30 11:46:19;;;;;;;3.17;1.20;;;;;;;;;;5049221;28;20905;-71
2022/08/30 11:48:50;;;;;;;3.88;1.20;;;;;;;;;;5055553;28;20144;-72
2022/08/30 11:51:23;;;;;;;2.80;1.23;;;;;;;;;;5054585;28;20053;-71
2022/08/30 11:53:57;;;;;;;3.20;1.00;;;;;;;;;;5057757;28;20052;-72
2022/08/30 11:56:32;;;;;;;4.32;1.00;;;;;;;;;;5053675;28;20941;-72
2022/08/30 11:59:09;;;;;;;5.65;1.42;;;;;;;;;;5059742;28;20120;-72
2022/08/30 12:01:36;;;;;;;2.72;1.25;;;;;;;;;;5049790;28;20439;-72
2022/08/30 12:04:19;;;;;;;3.25;1.27;;;;;;;;;;5058448;28;20052;-72
2022/08/30 12:06:48;;;;;;;4.63;1.20;;;;;;;;;;5060693;28;20493;-72
2022/08/30 12:09:15;;;;;;;2.75;1.10;;;;;;;;;;5055455;28;20052;-72
2022/08/30 12:11:46;;;;;;;8.13;1.30;;;;;;;;;;5050360;28;20049;-73
2022/08/30 12:14:32;;;;;;;6.55;1.20;;;;;;;;;;5059563;28;20080;-71
2022/08/30 12:19:46;;;;;;;16.98;1.40;;;;;;;;;;5061957;28;20349;-71
2022/08/30 12:22:15;;;;;;;2.65;0.98;;;;;;;;;;5063386;28;20137;-71
2022/08/30 12:24:43;;;;;;;1.88;1.00;;;;;;;;;;5060734;28;20055;-71
2022/08/30 12:27:25;;;;;;;4.78;1.30;;;;;;;;;;5059859;28;20116;-72
2022/08/30 12:29:53;;;;;;;6.75;1.40;;;;;;;;;;5060306;28;20641;-72
2022/08/30 12:32:21;;;;;;;6.20;1.10;;;;;;;;;;5060339;28;20153;-71
2022/08/30 12:34:50;;;;;;;5.93;1.00;;;;;;;;;;5060085;28;20515;-72
2022/08/30 12:37:22;;;;;;;4.10;1.42;;;;;;;;;;5061358;28;20055;-71
2022/08/30 12:39:59;;;;;;;3.33;1.20;;;;;;;;;;5052629;28;20037;-72
2022/08/30 12:42:27;;;;;;;3.60;1.27;;;;;;;;;;5049792;28;20033;-72
2022/08/30 12:44:56;;;;;;;3.65;1.10;;;;;;;;;;5051555;28;20041;-72
2022/08/30 12:47:26;;;;;;;5.72;1.25;;;;;;;;;;5054557;28;20181;-72
2022/08/30 12:49:53;;;;;;;5.07;1.15;;;;;;;;;;5062331;28;20037;-72
2022/08/30 12:52:22;;;;;;;4.55;1.00;;;;;;;;;;5060401;28;20527;-71
2022/08/30 12:54:49;;;;;;;2.22;0.90;;;;;;;;;;5052739;28;20378;-71
2022/08/30 12:57:34;;;;;;;3.70;1.15;;;;;;;;;;5062368;28;20066;-71
2022/08/30 13:00:00;;;;;;;2.55;1.13;;;;;;;;;;5046257;28;20167;-71
2022/08/30 13:02:27;;;;;;;3.55;0.90;;;;;;;;;;5054832;28;20082;-72
2022/08/30 13:04:55;;;;;;;3.17;1.00;;;;;;;;;;5058959;28;20204;-71
2022/08/30 13:07:27;;;;;;;5.20;1.08;;;;;;;;;;5060564;28;20136;-72
2022/08/30 13:10:00;;;;;;;5.47;1.60;;;;;;;;;;5061204;28;20116;-71
2022/08/30 13:12:27;;;;;;;6.43;1.10;;;;;;;;;;5060673;28;20044;-71
2022/08/30 13:15:08;;;;;;;6.30;1.48;;;;;;;;;;5056058;28;20064;-71
2022/08/30 13:17:34;;;;;;;2.88;1.00;;;;;;;;;;5057715;28;20045;-71
2022/08/30 13:20:05;;;;;;;7.07;1.70;;;;;;;;;;5058731;28;20052;-71
2022/08/30 13:22:36;;;;;;;3.08;1.20;;;;;;;;;;5054777;28;20515;-71
2022/08/30 13:25:02;;;;;;;6.07;1.20;;;;;;;;;;5058656;28;20346;-71
2022/08/30 13:27:29;;;;;;;4.90;1.20;;;;;;;;;;5056105;28;20152;-71
2022/08/30 13:29:55;;;;;;;5.47;1.38;;;;;;;;;;5057552;28;20064;-71
2022/08/30 13:32:22;;;;;;;4.18;1.30;;;;;;;;;;5059139;28;20429;-71
2022/08/30 13:34:48;;;;;;;3.40;1.10;;;;;;;;;;5059918;28;20088;-72
2022/08/30 13:37:17;;;;;;;5.60;1.10;;;;;;;;;;5056708;28;20094;-71
2022/08/30 13:39:43;;;;;;;5.07;1.13;;;;;;;;;;5055643;28;20086;-71
2022/08/30 13:42:09;;;;;;;5.70;1.20;;;;;;;;;;5058555;28;20043;-71
2022/08/30 13:44:35;;;;;;;4.88;1.13;;;;;;;;;;5035930;28;20056;-71
2022/08/30 13:47:02;;;;;;;3.33;1.10;;;;;;;;;;5061583;28;20384;-71
2022/08/30 13:49:30;;;;;;;3.55;1.00;;;;;;;;;;5058106;28;20488;-72
2022/08/30 13:51:56;;;;;;;6.75;1.40;;;;;;;;;;5056224;28;20326;-71
2022/08/30 13:54:23;;;;;;;2.60;1.10;;;;;;;;;;5059411;28;20117;-71
2022/08/30 13:56:50;;;;;;;4.07;0.90;;;;;;;;;;5057500;28;20036;-71
2022/08/30 13:59:17;;;;;;;5.90;1.30;;;;;;;;;;5059918;28;20407;-71
2022/08/30 14:01:43;;;;;;;6.53;0.93;;;;;;;;;;5061798;28;20032;-71
2022/08/30 14:04:09;;;;;;;3.08;1.10;;;;;;;;;;5058495;28;20048;-71
2022/08/30 14:06:36;;;;;;;3.28;1.10;;;;;;;;;;5056935;28;20040;-71
2022/08/30 14:09:04;;;;;;;3.80;1.17;;;;;;;;;;5054277;28;20044;-71
2022/08/30 14:11:30;;;;;;;5.68;1.25;;;;;;;;;;5050476;28;20055;-71
2022/08/30 14:13:56;;;;;;;5.38;1.73;;;;;;;;;;5061379;28;20135;-71
2022/08/30 14:16:22;;;;;;;4.80;1.10;;;;;;;;;;5055677;28;20044;-71
2022/08/30 14:18:49;;;;;;;5.75;1.33;;;;;;;;;;5057432;28;20052;-71
2022/08/30 14:21:15;;;;;;;3.42;1.40;;;;;;;;;;5044594;28;20106;-71
2022/08/30 14:23:41;;;;;;;5.15;1.02;;;;;;;;;;5060259;28;20039;-71
2022/08/30 14:26:16;;;;;;;4.43;1.05;;;;;;;;;;5058725;28;20041;-71
2022/08/30 14:28:43;;;;;;;4.30;1.20;;;;;;;;;;5053290;28;20055;-71
2022/08/30 14:31:10;;;;;;;6.88;1.30;;;;;;;;;;5042958;28;20044;-71
2022/08/30 14:33:36;;;;;;;5.82;1.73;;;;;;;;;;5061432;28;20051;-71
2022/08/30 14:36:03;;;;;;;3.35;0.98;;;;;;;;;;5059928;28;20128;-71
2022/08/30 14:38:29;;;;;;;5.32;1.30;;;;;;;;;;5057999;28;20056;-71
2022/08/30 14:40:55;;;;;;;4.65;1.08;;;;;;;;;;5060097;28;20041;-71
2022/08/30 14:43:21;;;;;;;5.85;1.70;;;;;;;;;;5057709;28;20052;-70
2022/08/30 14:45:47;;;;;;;4.07;1.38;;;;;;;;;;5033694;28;20045;-70
2022/08/30 14:48:13;;;;;;;3.33;1.58;;;;;;;;;;5049814;28;20041;-70
2022/08/30 14:50:39;;;;;;;7.53;1.50;;;;;;;;;;5055549;28;20334;-68
2022/08/30 14:53:06;;;;;;;2.70;1.20;;;;;;;;;;5049021;28;20184;-70
2022/08/30 14:55:33;;;;;;;5.32;1.20;;;;;;;;;;5046661;28;20138;-70